Aviation Digital Data Service (ADDS)

Output produced by TAFs form (2022 UTC 29 January 2015)
found at http://aviationweather.gov/adds/tafs/
 
KSAF 291743Z 2918/3018 03008KT P6SM BKN100 
     FM291900 12015G25KT P6SM SCT040 BKN060 
     FM300200 13015G25KT P6SM VCSH BKN035 OVC040 
     TEMPO 3009/3013 3SM -RASN OVC025 
     FM301300 14012KT 3SM -RASN OVC020